createdAt,value
2022-08-12T00:00:07.107Z,1002.63
2022-08-12T00:05:06.470Z,1002.62
2022-08-12T00:10:06.451Z,1002.61
2022-08-12T00:15:06.361Z,1002.60
2022-08-12T00:20:06.304Z,1002.56
2022-08-12T00:25:06.229Z,1002.59
2022-08-12T00:30:06.260Z,1002.61
2022-08-12T00:35:15.053Z,1002.64
2022-08-12T00:40:11.824Z,1002.64
2022-08-12T00:45:07.046Z,1002.56
2022-08-12T00:50:05.983Z,1002.55
2022-08-12T00:55:05.935Z,1002.59
2022-08-12T01:00:06.013Z,1002.60
2022-08-12T01:05:05.881Z,1002.61
2022-08-12T01:10:05.799Z,1002.62
2022-08-12T01:15:05.667Z,1002.60
2022-08-12T01:20:05.680Z,1002.55
2022-08-12T01:25:05.596Z,1002.61
2022-08-12T01:30:05.541Z,1002.53
2022-08-12T01:35:05.446Z,1002.57
2022-08-12T01:40:35.836Z,1002.61
2022-08-12T01:45:06.355Z,1002.65
2022-08-12T01:50:05.301Z,1002.64
2022-08-12T01:55:05.234Z,1002.60
2022-08-12T02:00:05.250Z,1002.54
2022-08-12T02:05:05.169Z,1002.58
2022-08-12T02:10:05.104Z,1002.53
2022-08-12T02:15:05.129Z,1002.51
2022-08-12T02:20:04.969Z,1002.60
2022-08-12T02:25:04.905Z,1002.58
2022-08-12T02:30:04.868Z,1002.62
2022-08-12T02:35:04.797Z,1002.65
2022-08-12T02:40:04.831Z,1002.62
2022-08-12T02:45:04.676Z,1002.62
2022-08-12T02:50:04.668Z,1002.64
2022-08-12T02:55:04.599Z,1002.66
2022-08-12T03:00:04.615Z,1002.71
2022-08-12T03:05:04.579Z,1002.66
2022-08-12T03:10:06.921Z,1002.60
2022-08-12T03:15:04.365Z,1002.68
2022-08-12T03:20:08.639Z,1002.67
2022-08-12T03:25:05.256Z,1002.68
2022-08-12T03:30:04.284Z,1002.69
2022-08-12T03:35:04.180Z,1002.67
2022-08-12T03:40:04.191Z,1002.72
2022-08-12T03:45:04.134Z,1002.70
2022-08-12T03:50:04.065Z,1002.71
2022-08-12T03:55:03.913Z,1002.76
2022-08-12T04:00:03.851Z,1002.79
2022-08-12T04:05:03.815Z,1002.76
2022-08-12T04:10:03.757Z,1002.73
2022-08-12T04:15:03.726Z,1002.72
2022-08-12T04:20:03.676Z,1002.75
2022-08-12T04:25:03.594Z,1002.73
2022-08-12T04:30:21.458Z,1002.76
2022-08-12T04:35:04.497Z,1002.70
2022-08-12T04:40:03.501Z,1002.75
2022-08-12T04:45:03.376Z,1002.73
2022-08-12T04:50:03.317Z,1002.75
2022-08-12T04:55:04.272Z,1002.76
2022-08-12T05:00:03.194Z,1002.71
2022-08-12T05:05:03.185Z,1002.73
2022-08-12T05:10:03.137Z,1002.68
2022-08-12T05:15:03.228Z,1002.70
2022-08-12T05:20:04.038Z,1002.67
2022-08-12T05:25:03.051Z,1002.72
2022-08-12T05:30:07.787Z,1002.64
2022-08-12T05:35:03.975Z,1002.69
2022-08-12T05:40:06.876Z,1002.71
2022-08-12T05:45:04.024Z,1002.70
2022-08-12T05:50:02.747Z,1002.74
2022-08-12T05:55:02.823Z,1002.70
2022-08-12T06:00:03.668Z,1002.74
2022-08-12T06:05:02.900Z,1002.70
2022-08-12T06:10:02.629Z,1002.76
2022-08-12T06:15:02.527Z,1002.80
2022-08-12T06:20:22.810Z,1002.83
2022-08-12T06:25:03.468Z,1002.80
2022-08-12T06:30:09.071Z,1002.77
2022-08-12T06:36:13.515Z,1002.72
2022-08-12T06:41:14.457Z,1002.72
2022-08-12T06:46:13.405Z,1002.70
2022-08-12T06:51:13.345Z,1002.71
2022-08-12T06:56:13.288Z,1002.68
2022-08-12T07:01:13.311Z,1002.66
2022-08-12T07:06:13.201Z,1002.64
2022-08-12T07:11:13.239Z,1002.61
2022-08-12T07:16:13.131Z,1002.67
2022-08-12T07:21:13.027Z,1002.68
2022-08-12T07:26:12.990Z,1002.66
2022-08-12T07:31:12.931Z,1002.68
2022-08-12T07:36:12.894Z,1002.75
2022-08-12T07:41:15.562Z,1002.73
2022-08-12T07:46:12.780Z,1002.78
2022-08-12T07:51:12.717Z,1002.68
2022-08-12T07:56:13.681Z,1002.75
2022-08-12T08:01:12.691Z,1002.73
2022-08-12T08:06:18.996Z,1002.69
2022-08-12T08:11:13.556Z,1002.72
2022-08-12T08:16:12.494Z,1002.76
2022-08-12T08:21:12.418Z,1002.70
2022-08-12T08:26:12.372Z,1002.77
2022-08-12T08:31:12.323Z,1002.69
2022-08-12T08:36:13.429Z,1002.72
2022-08-12T08:41:13.238Z,1002.71
2022-08-12T08:46:13.188Z,1002.71
2022-08-12T08:51:12.148Z,1002.71
2022-08-12T08:56:12.109Z,1002.64
2022-08-12T09:01:12.092Z,1002.70
2022-08-12T09:06:14.627Z,1002.62
2022-08-12T09:11:12.073Z,1002.71
2022-08-12T09:16:12.913Z,1002.59
2022-08-12T09:21:12.834Z,1002.59
2022-08-12T09:26:11.844Z,1002.56
2022-08-12T09:32:03.727Z,1002.47
2022-08-12T09:36:12.714Z,1002.37
2022-08-12T09:42:33.198Z,1002.35
2022-08-12T09:46:21.501Z,1002.33
2022-08-12T09:51:22.208Z,1002.27
2022-08-12T09:57:01.130Z,1002.38
2022-08-12T10:01:15.218Z,1002.33
2022-08-12T10:06:26.487Z,1002.24
2022-08-12T10:11:20.523Z,1002.16
2022-08-12T10:16:22.029Z,1002.20
2022-08-12T10:21:12.296Z,1002.05
2022-08-12T10:26:37.787Z,1001.95
2022-08-12T10:31:16.208Z,1001.87
2022-08-12T10:36:11.183Z,1001.78
2022-08-12T10:41:12.094Z,1001.80
2022-08-12T10:46:13.807Z,1001.71
2022-08-12T10:51:51.966Z,1001.59
2022-08-12T10:56:11.996Z,1001.54
2022-08-12T11:01:50.567Z,1001.45
2022-08-12T11:07:08.462Z,1001.28
2022-08-12T11:11:13.250Z,1001.27
2022-08-12T11:16:21.892Z,1001.25
2022-08-12T11:21:15.921Z,1001.17
2022-08-12T11:26:10.768Z,1001.01
2022-08-12T11:31:13.991Z,1000.89
2022-08-12T11:36:17.513Z,1001.00
2022-08-12T11:41:10.635Z,1000.92
2022-08-12T11:46:10.545Z,1000.84
2022-08-12T11:51:11.493Z,1000.86
2022-08-12T11:56:11.324Z,1000.74
2022-08-12T12:02:02.773Z,1000.81
2022-08-12T12:06:11.356Z,1000.66
2022-08-12T12:11:10.341Z,1000.57
2022-08-12T12:16:11.220Z,1000.68
2022-08-12T12:21:10.255Z,1000.64
2022-08-12T12:26:34.829Z,1000.51
2022-08-12T12:31:14.966Z,1000.59
2022-08-12T12:42:57.868Z,1000.46
2022-08-12T12:47:28.695Z,1000.44
2022-08-12T12:52:19.841Z,1000.30
2022-08-12T12:57:05.773Z,1000.34
2022-08-12T13:02:06.212Z,1000.29
2022-08-12T13:07:05.880Z,1000.15
2022-08-12T13:12:04.583Z,1000.09
2022-08-12T13:17:06.223Z,1000.05
2022-08-12T13:22:04.538Z,1000.10
2022-08-12T13:27:04.474Z,1000.05
2022-08-12T13:32:19.449Z,1000.01
2022-08-12T13:37:09.998Z,1000.01
2022-08-12T13:42:05.398Z,1000.21
2022-08-12T13:47:18.462Z,1000.09
2022-08-12T13:52:05.341Z,1000.03
2022-08-12T13:57:04.233Z,1000.05
2022-08-12T14:02:05.198Z,999.94
2022-08-12T14:07:04.185Z,999.82
2022-08-12T14:12:05.180Z,999.96
2022-08-12T14:17:05.525Z,999.82
2022-08-12T14:22:04.782Z,999.91
2022-08-12T14:27:08.793Z,999.87
2022-08-12T14:32:04.901Z,999.88
2022-08-12T14:37:03.918Z,999.89
2022-08-12T14:42:06.057Z,999.84
2022-08-12T14:47:07.515Z,999.75
2022-08-12T14:52:57.764Z,999.75
2022-08-12T14:57:19.422Z,999.66
2022-08-12T15:02:04.890Z,999.82
2022-08-12T15:07:07.683Z,999.74
2022-08-12T15:12:04.719Z,999.84
2022-08-12T15:17:03.749Z,999.87
2022-08-12T15:22:38.834Z,999.76
2022-08-12T15:27:09.432Z,999.65
2022-08-12T15:32:08.988Z,999.62
2022-08-12T15:37:04.273Z,999.52
2022-08-12T15:42:04.297Z,999.55
2022-08-12T15:47:03.424Z,999.58
2022-08-12T15:52:05.127Z,999.48
2022-08-12T15:57:03.319Z,999.54
2022-08-12T16:02:03.224Z,999.56
2022-08-12T16:07:06.123Z,999.58
2022-08-12T16:12:03.985Z,999.57
2022-08-12T16:17:02.901Z,999.54
2022-08-12T16:22:02.914Z,999.63
2022-08-12T16:27:02.811Z,999.48
2022-08-12T16:32:02.850Z,999.42
2022-08-12T16:37:03.107Z,999.37
2022-08-12T16:42:02.634Z,999.32
2022-08-12T16:47:03.199Z,999.36
2022-08-12T16:52:02.509Z,999.34
2022-08-12T16:57:05.752Z,999.30
2022-08-12T17:02:02.410Z,999.24
2022-08-12T17:07:02.382Z,999.27
2022-08-12T17:12:02.460Z,999.26
2022-08-12T17:17:04.431Z,999.23
2022-08-12T17:22:02.743Z,999.19
2022-08-12T17:27:02.213Z,999.23
2022-08-12T17:32:03.096Z,999.23
2022-08-12T17:37:05.519Z,999.25
2022-08-12T17:42:02.015Z,999.28
2022-08-12T17:47:03.037Z,999.30
2022-08-12T17:52:02.614Z,999.39
2022-08-12T17:57:01.836Z,999.36
2022-08-12T18:02:01.800Z,999.39
2022-08-12T18:07:01.730Z,999.50
2022-08-12T18:12:05.863Z,999.47
2022-08-12T18:17:02.701Z,999.51
2022-08-12T18:22:03.065Z,999.57
2022-08-12T18:27:01.512Z,999.63
2022-08-12T18:32:09.106Z,999.60
2022-08-12T18:38:12.750Z,999.66
2022-08-12T18:43:15.235Z,999.73
2022-08-12T18:48:12.712Z,999.77
2022-08-12T18:54:04.847Z,999.80
2022-08-12T18:58:20.576Z,999.80
2022-08-12T19:03:38.934Z,999.83
2022-08-12T19:08:13.450Z,999.86
2022-08-12T19:13:18.580Z,999.87
2022-08-12T19:18:14.332Z,999.98
2022-08-12T19:23:16.447Z,999.99
2022-08-12T19:28:13.238Z,1000.01
2022-08-12T19:33:12.164Z,999.97
2022-08-12T19:38:12.144Z,1000.04
2022-08-12T19:43:19.062Z,1000.06
2022-08-12T19:48:16.896Z,1000.09
2022-08-12T19:53:12.019Z,1000.13
2022-08-12T19:58:18.143Z,1000.16
2022-08-12T20:03:40.462Z,1000.18
2022-08-12T20:08:12.876Z,1000.18
2022-08-12T20:13:18.531Z,1000.15
2022-08-12T20:18:19.159Z,1000.24
2022-08-12T20:23:12.708Z,1000.23
2022-08-12T20:28:12.752Z,1000.23
2022-08-12T20:33:18.406Z,1000.20
2022-08-12T20:38:27.429Z,1000.28
2022-08-12T20:43:14.163Z,1000.25
2022-08-12T20:48:11.401Z,1000.22
2022-08-12T20:53:14.030Z,1000.27
2022-08-12T20:58:12.291Z,1000.29
2022-08-12T21:03:11.217Z,1000.35
2022-08-12T21:08:11.905Z,1000.28
2022-08-12T21:13:20.663Z,1000.29
2022-08-12T21:18:29.000Z,1000.30
2022-08-12T21:23:12.119Z,1000.36
2022-08-12T21:28:11.067Z,1000.41
2022-08-12T21:33:14.561Z,1000.43
2022-08-12T21:38:10.864Z,1000.36
2022-08-12T21:43:10.936Z,1000.39
2022-08-12T21:48:11.818Z,1000.43
2022-08-12T21:53:12.766Z,1000.45
2022-08-12T21:58:10.719Z,1000.51
2022-08-12T22:03:10.539Z,1000.53
2022-08-12T22:08:10.489Z,1000.54
2022-08-12T22:14:02.275Z,1000.54
2022-08-12T22:18:11.376Z,1000.56
2022-08-12T22:23:21.565Z,1000.54
2022-08-12T22:28:11.270Z,1000.54
2022-08-12T22:33:15.643Z,1000.52
2022-08-12T22:38:11.280Z,1000.52
2022-08-12T22:43:14.584Z,1000.57
2022-08-12T22:48:11.147Z,1000.54
2022-08-12T22:53:10.002Z,1000.53
2022-08-12T22:58:09.982Z,1000.55
2022-08-12T23:03:47.069Z,1000.57
2022-08-12T23:08:13.721Z,1000.51
2022-08-12T23:13:10.859Z,1000.44
2022-08-12T23:18:09.869Z,1000.45
2022-08-12T23:23:10.089Z,1000.44
2022-08-12T23:28:30.115Z,1000.40
2022-08-12T23:33:13.611Z,1000.43
2022-08-12T23:38:10.504Z,1000.41
2022-08-12T23:43:12.368Z,1000.39
2022-08-12T23:48:09.380Z,1000.41
2022-08-12T23:53:14.081Z,1000.41
2022-08-12T23:58:21.018Z,1000.34
